Time;durP1;ratioP1;P1;durP2;ratioP2;P2;SDS_P1;SDS_P2;PMS_P1;PMS_P2;Temp;Humidity;BMP_temperature;BMP_pressure;BME280_temperature;BME280_humidity;BME280_pressure;Samples;Min_cycle;Max_cycle;Signal;HPM_P1;HPM_P2
2022/09/04 00:04:54;;;;;;;9.40;4.70;;;23.20;60.70;;;;;;220235;1268;22547;-59
2022/09/04 00:10:08;;;;;;;9.40;4.20;;;23.20;60.70;;;;;;220338;1268;22838;-61
2022/09/04 00:15:30;;;;;;;8.90;4.30;;;23.20;60.70;;;;;;220296;1267;22591;-59
2022/09/04 00:21:01;;;;;;;9.60;4.70;;;23.20;60.70;;;;;;220375;1268;23944;-60
2022/09/04 00:26:13;;;;;;;8.30;4.70;;;23.20;61.00;;;;;;228058;1267;22891;-59
2022/09/04 00:31:40;;;;;;;8.40;4.50;;;23.20;60.70;;;;;;220647;1267;22543;-60
2022/09/04 00:36:49;;;;;;;9.10;4.80;;;23.20;60.70;;;;;;223896;1267;22579;-59
2022/09/04 00:42:12;;;;;;;7.80;4.90;;;23.20;60.80;;;;;;220132;1267;25306;-60
2022/09/04 00:47:42;;;;;;;6.00;4.10;;;23.20;60.70;;;;;;220346;1267;22560;-61
2022/09/04 00:53:10;;;;;;;8.60;4.40;;;23.20;60.70;;;;;;220172;1267;25356;-57
2022/09/04 00:58:40;;;;;;;7.90;4.60;;;23.20;61.10;;;;;;220173;1267;22525;-59
2022/09/04 01:04:15;;;;;;;8.50;4.10;;;23.20;60.80;;;;;;220164;1268;22655;-60
2022/09/04 01:09:45;;;;;;;8.10;4.20;;;23.10;60.80;;;;;;220344;1267;25323;-59
2022/09/04 01:15:36;;;;;;;7.10;4.30;;;23.10;60.80;;;;;;220245;1267;24372;-62
2022/09/04 01:21:06;;;;;;;8.50;4.50;;;23.10;60.90;;;;;;219332;1271;24272;-61
2022/09/04 01:26:29;;;;;;;7.70;4.10;;;23.10;60.80;;;;;;220136;1267;24219;-59
2022/09/04 01:31:54;;;;;;;8.40;4.20;;;23.00;60.80;;;;;;220062;1268;22580;-61
2022/09/04 01:37:17;;;;;;;8.20;4.00;;;23.00;61.00;;;;;;219841;1270;23120;-60
2022/09/04 01:42:34;;;;;;;7.10;4.20;;;23.00;61.00;;;;;;220002;1269;26750;-61
2022/09/04 01:47:57;;;;;;;6.40;4.10;;;23.10;61.20;;;;;;220106;1270;22823;-60
2022/09/04 01:53:03;;;;;;;5.90;3.70;;;23.00;61.00;;;;;;220312;1268;22837;-61
2022/09/04 01:58:43;;;;;;;9.40;4.60;;;23.00;61.00;;;;;;220193;1270;23025;-60
2022/09/04 02:03:55;;;;;;;6.80;4.00;;;23.00;61.00;;;;;;220227;1268;25518;-59
2022/09/04 02:09:26;;;;;;;5.70;4.20;;;23.00;61.10;;;;;;219997;1268;25313;-58
2022/09/04 02:14:41;;;;;;;9.40;3.70;;;23.00;61.40;;;;;;223937;1268;22547;-58
2022/09/04 02:20:10;;;;;;;5.60;3.70;;;23.00;61.20;;;;;;222345;1267;26542;-61
2022/09/04 02:25:36;;;;;;;5.80;3.90;;;22.90;60.90;;;;;;220144;1267;25432;-59
2022/09/04 02:30:50;;;;;;;5.60;3.70;;;23.00;60.50;;;;;;220228;1267;24221;-61
2022/09/04 02:36:05;;;;;;;6.60;3.90;;;23.00;61.00;;;;;;220431;1267;24259;-59
2022/09/04 02:41:19;;;;;;;6.50;4.50;;;22.90;61.00;;;;;;220138;1267;25590;-59
2022/09/04 02:46:29;;;;;;;7.50;3.80;;;23.00;60.60;;;;;;220439;1267;22650;-60
2022/09/04 02:51:57;;;;;;;6.90;3.70;;;22.90;61.10;;;;;;220245;1267;24231;-63
2022/09/04 02:57:26;;;;;;;6.30;3.60;;;22.90;61.00;;;;;;220227;1267;25595;-58
2022/09/04 03:02:39;;;;;;;7.70;4.20;;;22.90;61.10;;;;;;220206;1267;22984;-60
2022/09/04 03:07:53;;;;;;;6.70;3.80;;;22.90;61.10;;;;;;220244;1267;22554;-60
2022/09/04 03:13:02;;;;;;;5.40;4.00;;;22.90;61.10;;;;;;220397;1267;22530;-60
2022/09/04 03:18:14;;;;;;;6.30;3.90;;;22.90;61.70;;;;;;220332;1267;22598;-60
2022/09/04 03:23:39;;;;;;;5.30;3.80;;;22.90;61.10;;;;;;220497;1267;23025;-59
2022/09/04 03:28:53;;;;;;;6.10;4.00;;;22.90;61.10;;;;;;220241;1267;22550;-61
2022/09/04 03:34:03;;;;;;;5.10;3.50;;;22.90;61.20;;;;;;220010;1270;22708;-60
2022/09/04 03:39:19;;;;;;;6.60;3.90;;;22.90;61.20;;;;;;220104;1269;24282;-58
2022/09/04 03:45:09;;;;;;;5.60;3.60;;;22.80;61.20;;;;;;220260;1267;24286;-59
2022/09/04 03:50:21;;;;;;;5.60;3.20;;;22.80;61.10;;;;;;220125;1268;25379;-59
2022/09/04 03:55:28;;;;;;;4.70;3.60;;;22.80;61.40;;;;;;220163;1267;25342;-57
2022/09/04 04:01:04;;;;;;;4.90;3.60;;;22.80;61.10;;;;;;220288;1268;22531;-61
2022/09/04 04:06:29;;;;;;;5.40;3.50;;;22.80;61.20;;;;;;220188;1268;22692;-60
2022/09/04 04:11:55;;;;;;;5.30;3.30;;;22.80;61.20;;;;;;220245;1267;25363;-59
2022/09/04 04:17:20;;;;;;;5.30;3.90;;;22.80;61.50;;;;;;220206;1268;22554;-59
2022/09/04 04:22:51;;;;;;;5.10;3.60;;;22.80;61.20;;;;;;220053;1267;22766;-58
2022/09/04 04:28:08;;;;;;;6.00;4.10;;;22.80;61.30;;;;;;220052;1270;22615;-61
2022/09/04 04:33:18;;;;;;;6.20;3.40;;;22.80;61.30;;;;;;220028;1268;25578;-59
2022/09/04 04:38:35;;;;;;;5.60;3.70;;;22.80;61.30;;;;;;220037;1268;25445;-61
2022/09/04 04:44:00;;;;;;;5.10;3.30;;;22.70;61.30;;;;;;220180;1267;25299;-58
2022/09/04 04:49:32;;;;;;;5.90;3.80;;;22.70;61.60;;;;;;220162;1267;22592;-60
2022/09/04 04:55:30;;;;;;;4.80;3.50;;;22.80;61.30;;;;;;219185;1267;1472530;-60
2022/09/04 05:00:42;;;;;;;6.10;3.90;;;22.70;61.30;;;;;;219821;1267;22728;-59
2022/09/04 05:06:35;;;;;;;6.00;3.10;;;22.70;61.40;;;;;;220294;1267;25248;-58
2022/09/04 05:12:25;;;;;;;5.00;3.20;;;22.70;61.30;;;;;;220059;1267;22580;-60
2022/09/04 05:17:52;;;;;;;4.90;3.50;;;22.70;61.30;;;;;;220366;1267;25449;-60
2022/09/04 05:23:16;;;;;;;5.10;3.10;;;22.70;61.30;;;;;;220512;1267;27795;-59
2022/09/04 05:28:37;;;;;;;5.50;3.60;;;22.80;61.30;;;;;;220356;1267;25581;-60
2022/09/04 05:33:50;;;;;;;4.80;3.30;;;22.70;61.60;;;;;;220319;1270;22553;-59
2022/09/04 05:39:19;;;;;;;5.60;3.80;;;22.70;61.20;;;;;;220475;1268;22796;-59
2022/09/04 05:44:53;;;;;;;4.50;3.30;;;22.70;61.20;;;;;;220419;1267;22694;-59
2022/09/04 05:50:26;;;;;;;5.00;3.40;;;22.80;61.30;;;;;;220286;1267;25247;-59
2022/09/04 05:55:46;;;;;;;5.20;3.60;;;22.70;61.30;;;;;;220415;1268;25420;-60
2022/09/04 06:01:07;;;;;;;4.50;3.10;;;22.80;61.90;;;;;;220353;1267;25467;-59
2022/09/04 06:06:35;;;;;;;4.30;3.00;;;22.70;61.50;;;;;;220252;1267;22611;-60
2022/09/04 06:11:57;;;;;;;4.20;2.90;;;22.80;61.30;;;;;;220317;1267;22608;-59
2022/09/04 06:17:17;;;;;;;5.60;3.60;;;22.70;61.30;;;;;;220038;1268;24311;-60
2022/09/04 06:22:48;;;;;;;6.30;3.30;;;22.80;61.30;;;;;;220407;1267;22616;-61
2022/09/04 06:28:14;;;;;;;4.70;3.50;;;22.80;61.30;;;;;;220254;1267;22525;-59
2022/09/04 06:33:27;;;;;;;4.90;3.30;;;22.70;61.20;;;;;;220171;1267;22560;-59
2022/09/04 06:38:37;;;;;;;5.10;3.40;;;22.80;61.30;;;;;;220226;1267;24876;-59
2022/09/04 06:43:54;;;;;;;4.80;3.10;;;22.80;61.20;;;;;;220396;1267;25735;-59
2022/09/04 06:49:00;;;;;;;5.70;3.20;;;22.80;61.20;;;;;;220174;1267;22711;-58
2022/09/04 06:54:21;;;;;;;8.50;3.30;;;22.80;61.30;;;;;;220148;1267;24277;-60
2022/09/04 06:59:43;;;;;;;10.10;4.00;;;22.80;61.70;;;;;;220097;1267;24701;-59
2022/09/04 07:05:09;;;;;;;5.50;3.00;;;22.90;61.90;;;;;;220056;1267;24502;-57
2022/09/04 07:24:17;;;;;;;5.90;3.20;;;22.90;61.90;;;;;;213224;1306;543088;-54
2022/09/04 07:29:37;;;;;;;8.20;4.30;;;22.90;62.80;;;;;;221947;1280;24203;-56
2022/09/04 07:35:21;;;;;;;14.10;3.50;;;23.00;64.00;;;;;;217024;1278;1541658;-55
2022/09/04 07:41:21;;;;;;;10.10;3.80;;;23.10;65.20;;;;;;227002;1277;22143;-56
2022/09/04 07:47:19;;;;;;;7.90;3.60;;;23.10;62.50;;;;;;220441;1277;24266;-55
2022/09/04 07:52:53;;;;;;;7.00;3.60;;;23.10;61.20;;;;;;219070;1277;24311;-58
2022/09/04 07:58:57;;;;;;;6.20;4.30;;;23.00;62.10;;;;;;218981;1276;24858;-57
2022/09/04 08:05:02;;;;;;;7.20;4.10;;;23.00;62.10;;;;;;218729;1278;24461;-58
2022/09/04 08:10:21;;;;;;;9.40;4.70;;;23.00;60.90;;;;;;219462;1274;22529;-55
2022/09/04 08:15:31;;;;;;;8.30;5.10;;;23.00;59.20;;;;;;219425;1277;24237;-57
2022/09/04 08:21:01;;;;;;;11.90;5.00;;;22.90;60.00;;;;;;219411;1274;22639;-55
2022/09/04 08:26:27;;;;;;;9.90;4.40;;;23.00;59.20;;;;;;219361;1279;26910;-57
2022/09/04 08:32:08;;;;;;;17.30;4.80;;;23.00;59.20;;;;;;219615;1274;23029;-50
2022/09/04 08:38:00;;;;;;;14.80;4.50;;;23.10;58.00;;;;;;219439;1274;22604;-55
2022/09/04 08:44:25;;;;;;;9.90;4.50;;;23.10;58.20;;;;;;219203;1274;25621;-55
2022/09/04 08:49:53;;;;;;;8.50;4.10;;;23.10;57.90;;;;;;219398;1274;22565;-54
2022/09/04 08:55:48;;;;;;;10.60;4.20;;;23.10;58.40;;;;;;219307;1274;24315;-55
2022/09/04 09:01:43;;;;;;;10.40;4.50;;;23.20;57.70;;;;;;219187;1275;24271;-52
2022/09/04 09:07:24;;;;;;;7.50;4.40;;;23.30;57.50;;;;;;219548;1274;26677;-55
2022/09/04 09:13:18;;;;;;;11.20;4.90;;;23.30;57.80;;;;;;219451;1274;23014;-57
2022/09/04 09:19:10;;;;;;;9.20;4.70;;;23.40;57.50;;;;;;219440;1274;22540;-52
2022/09/04 09:24:48;;;;;;;7.60;3.70;;;23.50;57.50;;;;;;219526;1274;24157;-50
2022/09/04 09:30:13;;;;;;;8.10;4.50;;;23.50;57.40;;;;;;219293;1274;24227;-54
2022/09/04 09:35:46;;;;;;;7.00;4.70;;;23.40;57.40;;;;;;219439;1274;24221;-55
2022/09/04 09:41:23;;;;;;;8.90;3.80;;;23.40;56.00;;;;;;220076;1272;25465;-53
2022/09/04 09:47:03;;;;;;;10.00;5.10;;;23.30;56.10;;;;;;220057;1271;24762;-53
2022/09/04 09:52:26;;;;;;;8.00;4.00;;;23.30;55.70;;;;;;220020;1271;22612;-56
2022/09/04 09:58:01;;;;;;;4.80;3.60;;;23.40;55.90;;;;;;219972;1272;22716;-52
2022/09/04 10:03:28;;;;;;;5.80;3.80;;;23.30;54.90;;;;;;219940;1273;23895;-55
2022/09/04 10:09:12;;;;;;;6.80;4.00;;;23.40;55.20;;;;;;219856;1271;25246;-53
2022/09/04 10:14:38;;;;;;;5.00;3.50;;;23.50;55.00;;;;;;219978;1270;24232;-53
2022/09/04 10:20:08;;;;;;;5.80;3.50;;;23.50;54.80;;;;;;220177;1271;22576;-53
2022/09/04 10:25:30;;;;;;;5.00;3.30;;;23.60;54.60;;;;;;220033;1271;25484;-54
2022/09/04 10:31:34;;;;;;;;;;;;;;;;;;;;;
2022/09/04 10:36:59;;;;;;;6.30;2.80;;;23.60;54.40;;;;;;220060;1272;22707;-51
2022/09/04 10:42:45;;;;;;;8.10;3.20;;;23.80;54.40;;;;;;219922;1271;22567;-49
2022/09/04 10:48:11;;;;;;;4.00;3.00;;;23.90;54.00;;;;;;220070;1271;24710;-54
2022/09/04 10:53:53;;;;;;;5.00;3.30;;;23.90;53.90;;;;;;220011;1271;23242;-52
2022/09/04 10:59:36;;;;;;;4.50;2.90;;;23.90;53.90;;;;;;220123;1271;22659;-49
2022/09/04 11:05:02;;;;;;;10.90;3.70;;;23.90;53.60;;;;;;219937;1273;22550;-51
2022/09/04 11:10:27;;;;;;;5.00;3.50;;;23.80;53.50;;;;;;220116;1271;22693;-49
2022/09/04 11:16:09;;;;;;;4.70;3.10;;;23.80;54.20;;;;;;220054;1271;22569;-51
2022/09/04 11:21:15;;;;;;;;;;;23.90;53.70;;;;;;220069;1271;22681;-49
2022/09/04 11:26:56;;;;;;;5.70;3.20;;;24.00;53.00;;;;;;220233;1271;23269;-49
2022/09/04 11:32:33;;;;;;;3.80;3.00;;;23.90;52.60;;;;;;220297;1271;22656;-54
2022/09/04 11:38:16;;;;;;;6.70;3.10;;;23.90;51.90;;;;;;220102;1271;25307;-48
2022/09/04 11:43:50;;;;;;;7.90;3.00;;;23.90;52.40;;;;;;219955;1268;22987;-52
2022/09/04 11:49:39;;;;;;;3.50;2.80;;;24.00;53.00;;;;;;219830;1271;24199;-48
2022/09/04 11:55:18;;;;;;;4.70;2.90;;;24.00;53.60;;;;;;219962;1271;22673;-47
2022/09/04 12:00:46;;;;;;;4.60;2.80;;;24.10;53.00;;;;;;219853;1271;22573;-48
2022/09/04 12:06:07;;;;;;;6.40;2.80;;;24.10;52.90;;;;;;219966;1270;24227;-46
2022/09/04 12:11:19;;;;;;;5.20;2.80;;;24.10;52.70;;;;;;220042;1271;24157;-50
2022/09/04 12:17:03;;;;;;;6.00;2.80;;;24.00;53.10;;;;;;219675;1271;25300;-48
2022/09/04 12:22:21;;;;;;;4.30;3.00;;;24.10;53.20;;;;;;219801;1271;22547;-48
2022/09/04 12:27:44;;;;;;;4.40;2.50;;;23.90;53.60;;;;;;219879;1271;26694;-47
2022/09/04 12:33:10;;;;;;;3.70;2.10;;;23.90;52.60;;;;;;219899;1271;22601;-52
2022/09/04 12:38:31;;;;;;;3.40;2.70;;;24.00;53.80;;;;;;219680;1271;22615;-49
2022/09/04 12:43:58;;;;;;;3.90;2.70;;;24.00;53.50;;;;;;219718;1271;24254;-47
2022/09/04 12:49:25;;;;;;;4.60;3.00;;;24.00;53.60;;;;;;221395;1270;24254;-48
2022/09/04 12:55:21;;;;;;;3.70;2.50;;;24.20;53.40;;;;;;219805;1271;22684;-52
2022/09/04 13:00:51;;;;;;;3.50;2.30;;;24.00;52.20;;;;;;220610;1271;22549;-50
2022/09/04 13:06:30;;;;;;;3.50;2.50;;;24.00;53.40;;;;;;220958;1265;22825;-50
2022/09/04 13:12:37;;;;;;;2.90;2.00;;;23.90;52.60;;;;;;220909;1265;22532;-51
2022/09/04 13:19:10;;;;;;;4.00;2.20;;;24.00;52.40;;;;;;220709;1267;23901;-53
2022/09/04 13:24:49;;;;;;;3.20;2.10;;;23.90;52.70;;;;;;220603;1267;22545;-48
2022/09/04 13:30:20;;;;;;;2.60;2.00;;;24.10;52.50;;;;;;221070;1267;22594;-50
2022/09/04 13:35:41;;;;;;;4.40;2.30;;;24.20;52.00;;;;;;220169;1267;22534;-49
2022/09/04 13:41:02;;;;;;;3.00;2.10;;;24.30;51.80;;;;;;220255;1265;22706;-48
2022/09/04 13:46:13;;;;;;;6.70;2.00;;;24.30;51.80;;;;;;220035;1267;22840;-50
2022/09/04 13:51:31;;;;;;;4.40;2.30;;;24.30;52.00;;;;;;220607;1267;22531;-50
2022/09/04 13:56:49;;;;;;;3.10;1.90;;;24.30;52.00;;;;;;220392;1267;23235;-51
2022/09/04 14:02:11;;;;;;;4.70;2.40;;;24.30;52.10;;;;;;220662;1265;25682;-48
2022/09/04 14:07:31;;;;;;;3.10;1.90;;;24.30;52.40;;;;;;220616;1267;22561;-49
2022/09/04 14:13:00;;;;;;;3.10;1.80;;;24.30;52.90;;;;;;220698;1265;22528;-52
2022/09/04 14:18:20;;;;;;;3.70;2.00;;;24.30;52.10;;;;;;220860;1267;22996;-50
2022/09/04 14:23:39;;;;;;;2.50;1.80;;;24.30;51.50;;;;;;220697;1265;24300;-50
2022/09/04 14:28:58;;;;;;;2.70;1.70;;;24.20;51.70;;;;;;220566;1267;22534;-52
2022/09/04 14:34:25;;;;;;;2.60;1.60;;;24.20;51.50;;;;;;221033;1265;22717;-53
2022/09/04 14:39:41;;;;;;;2.20;1.80;;;24.10;51.70;;;;;;220736;1265;25118;-49
2022/09/04 14:44:44;;;;;;;4.30;1.90;;;24.00;52.30;;;;;;220363;1267;22555;-50
2022/09/04 14:49:54;;;;;;;2.90;2.00;;;24.00;52.30;;;;;;220388;1267;22540;-52
2022/09/04 14:55:12;;;;;;;5.50;2.10;;;24.00;52.50;;;;;;220315;1267;24672;-56
2022/09/04 15:00:23;;;;;;;6.40;2.00;;;24.20;53.40;;;;;;220346;1267;22696;-51
2022/09/04 15:05:50;;;;;;;9.80;2.00;;;24.20;53.30;;;;;;220396;1265;22551;-57
2022/09/04 15:10:59;;;;;;;8.10;1.90;;;24.10;53.90;;;;;;220529;1267;24226;-53
2022/09/04 15:16:08;;;;;;;5.20;2.20;;;24.20;53.80;;;;;;220542;1268;24314;-52
2022/09/04 15:21:28;;;;;;;6.60;2.40;;;24.10;53.40;;;;;;220766;1265;25305;-59
2022/09/04 15:26:40;;;;;;;5.00;2.00;;;24.00;54.20;;;;;;220518;1265;23023;-56
2022/09/04 15:31:59;;;;;;;4.60;2.40;;;24.00;53.70;;;;;;220652;1265;22904;-57
2022/09/04 15:37:27;;;;;;;4.90;2.60;;;23.90;53.90;;;;;;220598;1265;22799;-57
2022/09/04 15:43:00;;;;;;;11.20;2.60;;;24.10;54.50;;;;;;220889;1265;22538;-59
2022/09/04 15:48:53;;;;;;;5.30;2.30;;;24.00;54.00;;;;;;220739;1265;25648;-56
2022/09/04 15:54:17;;;;;;;4.30;2.30;;;24.00;54.40;;;;;;220519;1265;22569;-56
2022/09/04 15:59:39;;;;;;;4.00;2.30;;;24.00;54.00;;;;;;220430;1265;25344;-57
2022/09/04 16:04:48;;;;;;;;;;;24.10;53.90;;;;;;220615;1265;22508;-58
2022/09/04 16:10:02;;;;;;;4.80;2.50;;;24.10;54.00;;;;;;220841;1264;23893;-58
2022/09/04 16:15:30;;;;;;;5.60;2.60;;;23.90;54.50;;;;;;220748;1265;22570;-59
2022/09/04 16:20:50;;;;;;;3.20;2.30;;;23.90;54.20;;;;;;220401;1265;22648;-56
2022/09/04 16:25:58;;;;;;;3.40;2.50;;;23.90;54.30;;;;;;220045;1267;22615;-57
2022/09/04 16:31:14;;;;;;;4.40;2.60;;;23.90;54.50;;;;;;220549;1265;22947;-59
2022/09/04 16:36:40;;;;;;;5.20;2.20;;;23.90;54.50;;;;;;220267;1268;22876;-58
2022/09/04 16:41:56;;;;;;;4.10;3.00;;;23.90;54.90;;;;;;220784;1265;24103;-58
2022/09/04 16:47:43;;;;;;;3.60;2.60;;;23.90;55.20;;;;;;220252;1267;22554;-57
2022/09/04 16:53:40;;;;;;;5.80;2.70;;;23.80;54.80;;;;;;220666;1265;24421;-56
2022/09/04 16:59:03;;;;;;;4.30;2.80;;;23.80;54.70;;;;;;220638;1265;22572;-57
2022/09/04 17:04:35;;;;;;;6.20;2.90;;;23.80;54.80;;;;;;220572;1265;22588;-58
2022/09/04 17:09:55;;;;;;;5.20;3.00;;;23.80;55.50;;;;;;220735;1265;25401;-56
2022/09/04 17:15:41;;;;;;;8.00;3.00;;;23.90;55.60;;;;;;220597;1267;23905;-57
2022/09/04 17:27:20;;;;;;;4.00;3.10;;;23.70;55.20;;;;;;220947;1265;24234;-57
2022/09/04 17:33:10;;;;;;;4.20;2.80;;;23.60;55.50;;;;;;220395;1266;24239;-55
2022/09/04 17:38:49;;;;;;;5.30;3.10;;;23.50;55.60;;;;;;220890;1265;26658;-55
2022/09/04 17:44:53;;;;;;;5.60;3.10;;;23.40;56.00;;;;;;220364;1265;22534;-57
2022/09/04 17:49:58;;;;;;;8.60;3.50;;;23.40;56.30;;;;;;220710;1267;22636;-57
2022/09/04 17:55:07;;;;;;;4.60;3.40;;;23.30;56.90;;;;;;220867;1265;25365;-57
2022/09/04 18:00:27;;;;;;;4.50;3.00;;;23.30;57.10;;;;;;220669;1267;23931;-58
2022/09/04 18:05:45;;;;;;;6.10;3.10;;;23.20;57.10;;;;;;220821;1267;22656;-58
2022/09/04 18:11:07;;;;;;;5.10;3.20;;;23.20;57.10;;;;;;220707;1265;25538;-58
2022/09/04 18:16:26;;;;;;;6.70;3.50;;;23.10;57.30;;;;;;220476;1267;22538;-55
2022/09/04 18:21:39;;;;;;;7.10;3.20;;;23.00;57.50;;;;;;220800;1267;24346;-59
2022/09/04 18:26:46;;;;;;;8.80;3.60;;;22.90;57.80;;;;;;220748;1267;25250;-54
2022/09/04 18:31:58;;;;;;;5.10;3.20;;;22.80;58.00;;;;;;220572;1264;22524;-57
2022/09/04 18:37:51;;;;;;;8.20;3.70;;;22.80;58.20;;;;;;220680;1265;22710;-54
2022/09/04 18:43:25;;;;;;;6.00;4.20;;;22.70;58.50;;;;;;220892;1265;25378;-56
2022/09/04 18:49:03;;;;;;;7.30;4.70;;;22.60;58.50;;;;;;220700;1265;24349;-56
2022/09/04 18:54:40;;;;;;;6.60;4.50;;;22.50;58.80;;;;;;220768;1265;25603;-56
2022/09/04 18:59:46;;;;;;;6.30;4.40;;;22.50;59.00;;;;;;220624;1267;24221;-54
2022/09/04 19:05:14;;;;;;;8.10;4.30;;;22.40;59.30;;;;;;220574;1267;22538;-56
2022/09/04 19:10:27;;;;;;;8.30;4.70;;;22.30;59.80;;;;;;220663;1267;23601;-57
2022/09/04 19:15:41;;;;;;;8.50;4.50;;;22.30;60.00;;;;;;220486;1265;23858;-54
2022/09/04 19:20:57;;;;;;;18.40;5.60;;;22.20;60.30;;;;;;220739;1265;23899;-59
2022/09/04 19:26:55;;;;;;;12.20;5.30;;;22.50;60.60;;;;;;220660;1265;24261;-59
2022/09/04 19:32:41;;;;;;;13.10;4.70;;;22.80;59.90;;;;;;220664;1265;22541;-59
2022/09/04 19:38:43;;;;;;;13.70;4.50;;;22.80;59.60;;;;;;215314;1267;7227738;-59
2022/09/04 19:45:07;;;;;;;11.60;4.60;;;22.90;59.60;;;;;;220701;1267;25391;-60
2022/09/04 19:50:44;;;;;;;8.90;4.00;;;23.10;60.50;;;;;;221043;1265;24189;-60
2022/09/04 19:56:43;;;;;;;12.50;5.40;;;23.30;59.70;;;;;;220486;1267;22535;-58
2022/09/04 20:02:47;;;;;;;13.00;4.70;;;23.40;59.50;;;;;;220437;1264;22545;-60
2022/09/04 20:08:42;;;;;;;11.70;4.40;;;23.50;59.30;;;;;;220819;1265;22821;-60
2022/09/04 20:13:59;;;;;;;10.90;4.40;;;23.50;58.90;;;;;;219406;1274;24316;-62
2022/09/04 20:19:22;;;;;;;7.50;4.20;;;23.50;59.00;;;;;;220656;1268;24199;-56
2022/09/04 20:24:58;;;;;;;12.40;4.40;;;23.50;59.20;;;;;;220655;1265;22625;-58
2022/09/04 20:30:22;;;;;;;12.30;4.10;;;23.50;59.90;;;;;;220742;1267;24233;-58
2022/09/04 20:36:01;;;;;;;8.30;4.00;;;23.50;59.50;;;;;;220488;1265;24391;-57
2022/09/04 20:41:33;;;;;;;14.30;4.60;;;23.50;59.90;;;;;;220830;1264;25308;-58
2022/09/04 20:47:04;;;;;;;8.40;4.10;;;23.40;60.50;;;;;;220560;1265;25423;-59
2022/09/04 20:52:37;;;;;;;6.70;4.30;;;23.50;60.30;;;;;;220575;1265;24212;-60
2022/09/04 20:58:16;;;;;;;11.00;4.30;;;23.50;60.60;;;;;;220214;1264;22523;-58
2022/09/04 21:03:52;;;;;;;12.10;4.50;;;23.50;61.00;;;;;;220308;1265;25389;-59
2022/09/04 21:09:39;;;;;;;8.20;4.20;;;23.50;60.80;;;;;;220527;1268;22541;-58
2022/09/04 21:15:19;;;;;;;8.70;3.90;;;23.50;60.70;;;;;;220317;1268;25286;-58
2022/09/04 21:20:41;;;;;;;6.60;3.90;;;23.50;60.90;;;;;;220548;1264;24211;-58
2022/09/04 21:26:27;;;;;;;8.80;4.10;;;23.50;60.60;;;;;;220301;1265;27777;-58
2022/09/04 21:32:18;;;;;;;10.30;3.60;;;23.50;61.10;;;;;;220165;1267;25268;-58
2022/09/04 21:37:56;;;;;;;7.00;4.30;;;23.50;60.90;;;;;;220399;1265;22553;-58
2022/09/04 21:43:46;;;;;;;6.60;3.50;;;23.50;60.90;;;;;;220454;1267;24373;-59
2022/09/04 21:49:37;;;;;;;4.40;3.10;;;23.50;60.80;;;;;;220306;1265;24185;-56
2022/09/04 21:55:17;;;;;;;7.40;3.60;;;23.50;60.70;;;;;;220233;1267;25621;-59
2022/09/04 22:01:16;;;;;;;5.90;3.60;;;23.50;60.70;;;;;;220267;1267;24215;-58
2022/09/04 22:07:33;;;;;;;7.60;4.00;;;23.50;60.60;;;;;;220297;1267;24766;-60
2022/09/04 22:13:34;;;;;;;4.50;3.20;;;23.50;60.70;;;;;;220311;1267;25298;-58
2022/09/04 22:19:36;;;;;;;6.10;3.80;;;23.60;60.70;;;;;;220345;1267;24334;-58
2022/09/04 22:25:19;;;;;;;4.70;3.20;;;23.60;60.70;;;;;;220607;1268;22548;-59
2022/09/04 22:31:06;;;;;;;6.00;3.60;;;23.60;60.80;;;;;;220499;1268;22563;-58
2022/09/04 22:36:27;;;;;;;5.00;3.30;;;23.60;60.80;;;;;;220365;1267;22621;-55
2022/09/04 22:41:58;;;;;;;5.70;3.50;;;23.60;60.70;;;;;;220264;1267;22628;-58
2022/09/04 22:47:30;;;;;;;6.50;3.40;;;23.60;60.70;;;;;;220391;1265;22515;-56
2022/09/04 22:53:03;;;;;;;7.40;3.90;;;23.60;60.80;;;;;;220692;1267;22707;-63
2022/09/04 22:58:24;;;;;;;9.50;3.50;;;23.60;60.90;;;;;;220747;1267;22529;-58
2022/09/04 23:04:22;;;;;;;7.20;3.40;;;23.60;61.30;;;;;;220624;1268;22703;-60
2022/09/04 23:10:02;;;;;;;6.50;3.50;;;23.60;61.20;;;;;;220416;1266;24199;-60
2022/09/04 23:15:59;;;;;;;5.10;3.10;;;23.60;61.20;;;;;;220415;1265;22556;-59
2022/09/04 23:21:35;;;;;;;7.00;3.20;;;23.50;60.90;;;;;;220610;1268;22604;-60
2022/09/04 23:27:29;;;;;;;7.10;3.60;;;23.50;60.90;;;;;;220509;1268;22547;-60
2022/09/04 23:32:49;;;;;;;7.80;3.60;;;23.50;60.90;;;;;;220563;1267;25538;-60
2022/09/04 23:38:19;;;;;;;8.40;3.90;;;23.50;61.50;;;;;;220645;1265;25307;-60
2022/09/04 23:44:07;;;;;;;6.30;3.10;;;23.50;61.40;;;;;;220781;1265;24247;-59
2022/09/04 23:49:56;;;;;;;5.20;3.20;;;23.50;61.10;;;;;;220664;1265;22537;-60
2022/09/04 23:55:56;;;;;;;9.50;3.70;;;23.40;61.20;;;;;;220845;1265;24419;-60
